Time;durP1;ratioP1;P1;durP2;ratioP2;P2;SDS_P1;SDS_P2;PMS_P1;PMS_P2;Temp;Humidity;BMP_temperature;BMP_pressure;BME280_temperature;BME280_humidity;BME280_pressure;Samples;Min_cycle;Max_cycle;Signal;HPM_P1;HPM_P2
2022/07/27 00:01:39;;;;;;;1.58;0.60;;;;;;;20.03;61.95;100434.59;5015315;28;20041;-72
2022/07/27 00:04:16;;;;;;;1.92;0.60;;;;;;;19.99;61.84;100438.56;5022244;28;20148;-70
2022/07/27 00:06:43;;;;;;;2.40;0.80;;;;;;;19.88;62.38;100421.50;5021736;28;20077;-72
2022/07/27 00:09:10;;;;;;;1.02;0.55;;;;;;;19.81;62.23;100414.09;5015089;28;20496;-71
2022/07/27 00:11:37;;;;;;;0.75;0.60;;;;;;;19.93;62.68;100435.41;5017349;28;20059;-70
2022/07/27 00:14:04;;;;;;;1.05;0.73;;;;;;;19.90;62.85;100437.50;5025208;28;20092;-70
2022/07/27 00:16:30;;;;;;;1.55;0.60;;;;;;;19.85;63.03;100443.25;5023329;28;20561;-72
2022/07/27 00:18:57;;;;;;;0.70;0.60;;;;;;;19.82;62.65;100445.38;5018029;28;20049;-71
2022/07/27 00:21:25;;;;;;;0.70;0.70;;;;;;;19.65;63.29;100422.59;5024517;28;20054;-72
2022/07/27 00:23:53;;;;;;;1.40;0.80;;;;;;;19.77;63.37;100435.00;5019618;28;20058;-71
2022/07/27 00:26:20;;;;;;;0.80;0.70;;;;;;;19.77;63.65;100456.50;5021575;28;20073;-71
2022/07/27 00:28:46;;;;;;;0.95;0.63;;;;;;;19.77;63.64;100451.13;5024800;28;20072;-72
2022/07/27 00:31:13;;;;;;;1.13;0.60;;;;;;;19.56;63.83;100421.53;5024886;28;20124;-70
2022/07/27 00:33:40;;;;;;;2.58;1.00;;;;;;;19.62;64.52;100433.59;5020723;28;20061;-72
2022/07/27 00:36:06;;;;;;;0.95;0.68;;;;;;;19.53;64.53;100427.16;5024999;28;20045;-70
2022/07/27 00:38:33;;;;;;;1.42;0.70;;;;;;;19.68;64.04;100437.59;5022729;28;20050;-71
2022/07/27 00:41:00;;;;;;;2.20;0.82;;;;;;;19.59;64.36;100431.16;5019697;28;20439;-72
2022/07/27 00:43:26;;;;;;;0.75;0.70;;;;;;;19.69;63.38;100450.88;5020017;28;20068;-72
2022/07/27 00:45:53;;;;;;;1.33;0.77;;;;;;;19.73;62.84;100455.03;5023649;28;20103;-73
2022/07/27 00:48:20;;;;;;;1.77;0.63;;;;;;;19.74;62.62;100456.75;5021570;28;20459;-73
2022/07/27 00:50:47;;;;;;;0.98;0.70;;;;;;;19.77;62.58;100453.81;5019489;28;20665;-72
2022/07/27 00:53:13;;;;;;;1.65;0.98;;;;;;;19.73;62.09;100452.34;5022057;28;20049;-71
2022/07/27 00:55:41;;;;;;;1.75;0.63;;;;;;;19.68;61.07;100448.34;5020668;28;20050;-73
2022/07/27 00:58:07;;;;;;;0.80;0.70;;;;;;;19.63;61.04;100448.75;5022074;28;20132;-70
2022/07/27 01:00:36;;;;;;;2.38;0.52;;;;;;;19.42;60.85;100424.47;5023001;28;20053;-72
2022/07/27 01:03:03;;;;;;;1.20;0.68;;;;;;;19.47;60.72;100446.44;5024754;28;20071;-71
2022/07/27 01:05:35;;;;;;;0.75;0.50;;;;;;;19.45;61.33;100455.59;5022742;28;20052;-72
2022/07/27 01:08:10;;;;;;;2.33;0.60;;;;;;;19.32;61.23;100428.06;5022212;28;20041;-72
2022/07/27 01:10:38;;;;;;;1.08;0.50;;;;;;;19.44;61.27;100453.91;5023671;28;20077;-73
2022/07/27 01:13:05;;;;;;;0.57;0.45;;;;;;;19.28;61.44;100422.09;5020605;28;20084;-73
2022/07/27 01:15:38;;;;;;;1.17;0.68;;;;;;;19.32;61.97;100423.56;5022227;28;20102;-71
2022/07/27 01:18:11;;;;;;;1.75;0.60;;;;;;;19.34;62.34;100426.13;5022183;28;20038;-72
2022/07/27 01:20:39;;;;;;;2.05;0.80;;;;;;;19.49;62.63;100457.06;5022943;28;20092;-72
2022/07/27 01:23:06;;;;;;;0.85;0.60;;;;;;;19.44;61.97;100453.91;5021210;28;20453;-71
2022/07/27 01:25:34;;;;;;;4.45;0.82;;;;;;;19.35;63.15;100450.16;5023155;28;20136;-71
2022/07/27 01:28:01;;;;;;;0.60;0.60;;;;;;;19.34;63.12;100453.81;5019498;28;20057;-73
2022/07/27 01:30:28;;;;;;;1.40;0.65;;;;;;;19.31;63.13;100463.94;5021012;28;20134;-70
2022/07/27 01:33:02;;;;;;;1.27;0.68;;;;;;;19.28;63.21;100455.16;5024224;28;20509;-70
2022/07/27 01:35:30;;;;;;;2.00;0.80;;;;;;;19.26;63.38;100462.50;5022931;28;20568;-73
2022/07/27 01:37:57;;;;;;;2.10;0.68;;;;;;;19.24;63.44;100453.72;5021141;28;20498;-75
2022/07/27 01:40:24;;;;;;;1.00;0.60;;;;;;;19.26;63.49;100453.59;5022269;28;20164;-70
2022/07/27 01:42:51;;;;;;;2.92;0.47;;;;;;;19.31;63.47;100451.38;5023885;28;20127;-71
2022/07/27 01:45:18;;;;;;;2.28;0.70;;;;;;;19.29;63.61;100453.34;5019765;28;20072;-73
2022/07/27 01:47:45;;;;;;;1.42;0.70;;;;;;;19.29;63.83;100453.34;5019996;28;20099;-71
2022/07/27 01:50:12;;;;;;;1.98;0.70;;;;;;;19.17;63.93;100435.56;5019802;28;20137;-70
2022/07/27 01:52:38;;;;;;;0.90;0.60;;;;;;;19.25;64.27;100455.41;5021556;28;20075;-72
2022/07/27 01:55:07;;;;;;;2.53;0.70;;;;;;;19.14;64.15;100441.16;5022961;28;20049;-70
2022/07/27 01:57:34;;;;;;;1.55;0.80;;;;;;;19.19;64.51;100457.75;5021901;28;20049;-71
2022/07/27 02:00:03;;;;;;;1.58;0.50;;;;;;;19.14;64.98;100458.13;5021709;28;20073;-71
2022/07/27 02:02:30;;;;;;;1.50;0.70;;;;;;;19.13;65.03;100448.38;5021081;28;20061;-71
2022/07/27 02:04:56;;;;;;;3.90;1.20;;;;;;;19.17;65.28;100455.19;5019615;28;20080;-70
2022/07/27 02:07:23;;;;;;;2.00;0.77;;;;;;;19.16;65.71;100450.81;5022708;28;20053;-72
2022/07/27 02:09:50;;;;;;;1.33;0.70;;;;;;;19.13;65.78;100451.06;5017935;28;20037;-73
2022/07/27 02:12:34;;;;;;;2.47;0.80;;;;;;;19.15;65.95;100443.72;5016759;28;20059;-71
2022/07/27 02:15:08;;;;;;;1.90;0.75;;;;;;;19.19;65.94;100449.72;5018810;28;20104;-72
2022/07/27 02:17:42;;;;;;;1.38;0.70;;;;;;;19.12;66.26;100443.13;5022459;28;22856;-73
2022/07/27 02:20:13;;;;;;;1.08;0.50;;;;;;;19.16;66.33;100447.28;5019685;28;20499;-71
2022/07/27 02:22:40;;;;;;;1.20;0.82;;;;;;;19.05;66.49;100444.59;5018581;28;20075;-71
2022/07/27 02:25:07;;;;;;;3.00;0.80;;;;;;;19.02;67.18;100451.09;5021475;28;20199;-71
2022/07/27 02:27:34;;;;;;;3.28;0.90;;;;;;;18.81;67.49;100423.28;5021565;28;20145;-72
2022/07/27 02:30:01;;;;;;;2.20;0.90;;;;;;;18.70;67.83;100420.63;5021102;28;20138;-71
2022/07/27 02:32:27;;;;;;;1.67;0.93;;;;;;;18.81;67.88;100455.50;5020614;28;22406;-73
2022/07/27 02:34:54;;;;;;;1.60;0.75;;;;;;;18.79;68.25;100452.06;5017631;28;20133;-71
2022/07/27 02:37:21;;;;;;;1.63;0.85;;;;;;;18.72;67.94;100448.19;5020629;28;20057;-71
2022/07/27 02:39:48;;;;;;;2.67;0.68;;;;;;;18.67;68.60;100435.13;5019332;28;20053;-71
2022/07/27 02:42:14;;;;;;;1.30;0.70;;;;;;;18.72;67.78;100440.16;5019669;28;20114;-72
2022/07/27 02:44:41;;;;;;;1.58;0.80;;;;;;;18.78;68.04;100453.03;5020216;28;20041;-70
2022/07/27 02:47:08;;;;;;;2.47;0.80;;;;;;;18.68;68.02;100428.78;5020958;28;20123;-72
2022/07/27 02:49:34;;;;;;;1.58;0.90;;;;;;;18.62;67.90;100428.41;5015001;28;20103;-74
2022/07/27 02:52:01;;;;;;;1.65;0.60;;;;;;;18.70;67.97;100444.78;5020219;28;20073;-72
2022/07/27 02:54:31;;;;;;;1.80;0.93;;;;;;;18.71;67.84;100449.16;5015637;28;20151;-73
2022/07/27 02:57:01;;;;;;;1.08;0.70;;;;;;;18.66;68.45;100444.16;5018354;28;20072;-73
2022/07/27 02:59:28;;;;;;;;;;;;;;;18.65;67.77;100444.28;5021557;28;20045;-74
2022/07/27 03:01:54;;;;;;;4.72;0.90;;;;;;;18.66;68.27;100448.66;5021217;28;19931;-71
2022/07/27 03:04:21;;;;;;;1.38;0.80;;;;;;;18.68;67.95;100446.72;5017300;28;20057;-72
2022/07/27 03:06:48;;;;;;;4.75;1.10;;;;;;;18.67;67.78;100450.38;5014761;28;20049;-73
2022/07/27 03:09:15;;;;;;;3.60;0.88;;;;;;;18.56;67.59;100430.59;5017836;28;20564;-72
2022/07/27 03:11:42;;;;;;;2.42;0.95;;;;;;;18.62;67.48;100448.06;5021285;28;20448;-70
2022/07/27 03:14:08;;;;;;;2.95;0.90;;;;;;;18.57;67.50;100442.19;5018449;28;20077;-72
2022/07/27 03:16:35;;;;;;;1.75;0.80;;;;;;;18.53;67.83;100441.56;5021520;28;20445;-72
2022/07/27 03:19:02;;;;;;;1.40;0.90;;;;;;;18.47;67.90;100439.38;5018661;28;20068;-73
2022/07/27 03:21:28;;;;;;;1.98;0.80;;;;;;;18.50;68.09;100449.84;5015893;28;20085;-72
2022/07/27 03:23:55;;;;;;;1.92;0.93;;;;;;;18.50;68.57;100440.94;5014249;28;20045;-70
2022/07/27 03:26:21;;;;;;;3.70;1.20;;;;;;;18.46;68.18;100434.97;5017967;28;20143;-70
2022/07/27 03:28:48;;;;;;;2.47;1.02;;;;;;;18.49;68.19;100445.47;5017563;28;20064;-71
2022/07/27 03:31:15;;;;;;;3.10;1.10;;;;;;;18.46;68.33;100442.16;5019587;28;20095;-72
2022/07/27 03:33:42;;;;;;;2.95;1.00;;;;;;;18.41;67.83;100441.69;5013876;28;20124;-71
2022/07/27 03:36:08;;;;;;;2.25;0.90;;;;;;;18.34;68.21;100453.84;5021028;28;20065;-71
2022/07/27 03:38:35;;;;;;;2.92;1.20;;;;;;;18.25;68.48;100450.09;5022834;28;20050;-71
2022/07/27 03:41:02;;;;;;;3.15;1.48;;;;;;;18.22;68.42;100450.31;5021639;28;20045;-71
2022/07/27 03:43:29;;;;;;;3.33;1.00;;;;;;;18.16;68.58;100448.09;5023574;28;20049;-70
2022/07/27 03:45:55;;;;;;;5.25;1.40;;;;;;;18.13;68.59;100454.53;5025649;28;20057;-71
2022/07/27 03:48:22;;;;;;;3.92;1.20;;;;;;;18.11;68.36;100455.63;5023177;28;20105;-73
2022/07/27 03:50:49;;;;;;;5.35;1.30;;;;;;;18.07;68.86;100464.91;5021149;28;20122;-71
2022/07/27 03:53:16;;;;;;;4.68;1.20;;;;;;;18.06;69.31;100463.19;5021622;28;20095;-71
2022/07/27 03:55:43;;;;;;;3.92;1.45;;;;;;;18.07;68.57;100447.00;5021465;28;20046;-71
2022/07/27 03:58:10;;;;;;;2.63;1.10;;;;;;;18.01;69.10;100451.97;5020253;28;20099;-72
2022/07/27 04:00:36;;;;;;;5.18;1.25;;;;;;;18.08;69.21;100458.56;5023949;28;20083;-70
2022/07/27 04:03:03;;;;;;;2.50;1.00;;;;;;;18.14;68.32;100455.41;5020864;28;20052;-71
2022/07/27 04:05:30;;;;;;;3.22;0.93;;;;;;;18.18;67.97;100467.59;5024883;28;20099;-72
2022/07/27 04:07:57;;;;;;;2.90;0.85;;;;;;;18.09;68.26;100468.31;5022757;28;20068;-70
2022/07/27 04:10:24;;;;;;;4.40;1.42;;;;;;;18.09;68.39;100469.19;5026254;28;20038;-72
2022/07/27 04:12:57;;;;;;;5.82;1.15;;;;;;;17.97;68.16;100451.34;5018972;28;20130;-71
2022/07/27 04:15:24;;;;;;;5.10;1.40;;;;;;;18.08;67.71;100469.28;5023110;28;20503;-71
2022/07/27 04:17:52;;;;;;;5.80;1.10;;;;;;;18.09;67.78;100473.69;5022918;28;20061;-72
2022/07/27 04:20:23;;;;;;;3.00;1.10;;;;;;;18.08;68.12;100477.34;5019151;28;20084;-68
2022/07/27 04:22:50;;;;;;;5.40;1.10;;;;;;;18.01;67.87;100470.72;5022213;28;20525;-73
2022/07/27 04:25:16;;;;;;;4.32;1.30;;;;;;;18.02;68.16;100469.75;5023846;28;20065;-70
2022/07/27 04:27:43;;;;;;;2.92;1.50;;;;;;;17.94;68.53;100475.72;5022963;28;20045;-70
2022/07/27 04:30:10;;;;;;;4.28;1.40;;;;;;;17.91;68.83;100475.09;5023481;28;20045;-71
2022/07/27 04:32:37;;;;;;;6.05;1.60;;;;;;;17.94;68.35;100473.03;5023607;28;20531;-74
2022/07/27 04:35:05;;;;;;;5.43;1.48;;;;;;;17.92;68.50;100466.94;5020271;28;22329;-71
2022/07/27 04:37:32;;;;;;;4.10;1.15;;;;;;;17.88;68.59;100465.44;5023981;28;20053;-71
2022/07/27 04:39:59;;;;;;;4.00;1.38;;;;;;;17.78;68.33;100448.38;5023967;28;20095;-71
2022/07/27 04:42:27;;;;;;;4.60;1.30;;;;;;;17.85;68.49;100463.84;5023212;28;20049;-71
2022/07/27 04:44:54;;;;;;;3.83;1.30;;;;;;;17.90;68.54;100471.56;5022118;28;20049;-72
2022/07/27 04:47:20;;;;;;;5.82;1.40;;;;;;;17.91;68.77;100469.72;5023419;28;20433;-73
2022/07/27 04:49:47;;;;;;;2.13;1.10;;;;;;;17.91;67.90;100475.94;5021977;28;20489;-69
2022/07/27 04:52:15;;;;;;;3.63;1.02;;;;;;;17.88;68.21;100481.53;5019866;28;20505;-69
2022/07/27 04:54:43;;;;;;;4.40;1.17;;;;;;;17.92;68.20;100479.47;5024505;28;20119;-69
2022/07/27 04:57:09;;;;;;;4.80;1.10;;;;;;;17.91;68.61;100480.44;5020323;28;20473;-69
2022/07/27 04:59:36;;;;;;;3.88;1.17;;;;;;;17.94;68.04;100474.84;5017995;28;20064;-69
2022/07/27 05:02:03;;;;;;;4.20;1.20;;;;;;;17.99;67.71;100483.38;5021824;28;20579;-72
2022/07/27 05:04:30;;;;;;;4.90;1.45;;;;;;;17.97;68.26;100474.59;5021203;28;20579;-70
2022/07/27 05:06:56;;;;;;;6.72;1.50;;;;;;;17.97;67.79;100482.63;5017469;28;20060;-72
2022/07/27 05:09:23;;;;;;;6.03;1.58;;;;;;;17.97;68.10;100488.00;5019165;28;20042;-69
2022/07/27 05:11:50;;;;;;;5.28;1.30;;;;;;;17.91;67.83;100477.75;5019740;28;20045;-70
2022/07/27 05:14:18;;;;;;;6.43;1.58;;;;;;;17.97;67.69;100491.53;5020112;28;20052;-69
2022/07/27 05:16:46;;;;;;;5.90;1.50;;;;;;;17.98;67.85;100495.06;5019023;28;20080;-69
2022/07/27 05:19:13;;;;;;;4.68;1.55;;;;;;;18.02;67.49;100500.09;5019149;28;20049;-69
2022/07/27 05:21:40;;;;;;;3.58;1.40;;;;;;;18.03;66.93;100493.75;5020767;28;20065;-69
2022/07/27 05:24:08;;;;;;;5.40;1.30;;;;;;;18.10;67.28;100496.84;5023160;28;20921;-69
2022/07/27 05:26:36;;;;;;;4.80;1.27;;;;;;;18.18;66.81;100508.66;5020409;28;20053;-69
2022/07/27 05:29:03;;;;;;;4.47;1.38;;;;;;;18.22;67.05;100504.78;5020050;28;20068;-72
2022/07/27 05:31:29;;;;;;;5.63;1.35;;;;;;;18.32;66.46;100506.75;5019106;28;21297;-70
2022/07/27 05:33:56;;;;;;;5.40;1.40;;;;;;;18.35;66.01;100514.53;5020647;28;20059;-69
2022/07/27 05:36:24;;;;;;;5.82;1.60;;;;;;;18.38;65.88;100514.31;5018528;28;20100;-71
2022/07/27 05:38:51;;;;;;;3.58;1.92;;;;;;;18.41;65.87;100522.97;5019596;28;20049;-69
2022/07/27 05:41:22;;;;;;;6.90;1.50;;;;;;;18.39;65.48;100521.38;5018996;28;20130;-71
2022/07/27 05:43:49;;;;;;;6.25;1.30;;;;;;;18.43;65.32;100523.69;5019084;28;20486;-70
2022/07/27 05:46:16;;;;;;;7.07;1.48;;;;;;;18.47;65.33;100519.81;5015076;28;20115;-69
2022/07/27 05:48:43;;;;;;;5.30;1.48;;;;;;;18.51;64.72;100523.97;5010490;28;20060;-70
2022/07/27 05:51:10;;;;;;;5.90;1.63;;;;;;;18.52;64.82;100523.00;5016325;28;20042;-70
2022/07/27 05:53:37;;;;;;;5.85;1.30;;;;;;;18.46;64.60;100520.78;5013583;28;20104;-73
2022/07/27 05:56:04;;;;;;;4.93;1.20;;;;;;;18.30;64.69;100498.81;5014051;28;20135;-71
2022/07/27 05:58:31;;;;;;;6.00;1.65;;;;;;;18.39;64.97;100530.28;5020837;28;20093;-71
2022/07/27 06:00:57;;;;;;;4.90;1.48;;;;;;;18.26;65.30;100526.00;5013772;28;20450;-70
2022/07/27 06:03:25;;;;;;;4.15;1.67;;;;;;;18.28;65.88;100538.28;5017600;28;20045;-70
2022/07/27 06:07:57;;;;;;;7.10;1.75;;;;;;;18.31;65.77;100527.31;5012364;28;20140;-70
2022/07/27 06:08:38;;;;;;;5.25;1.48;;;;;;;18.25;65.32;100517.09;5017922;28;20056;-70
2022/07/27 06:11:05;;;;;;;4.68;1.40;;;;;;;18.51;65.24;100545.41;5020685;28;20540;-73
2022/07/27 06:13:34;;;;;;;5.35;1.50;;;;;;;18.54;64.34;100531.78;5016222;28;20843;-71
2022/07/27 06:16:02;;;;;;;4.38;1.30;;;;;;;18.88;63.36;100545.25;5019692;28;20061;-71
2022/07/27 06:18:29;;;;;;;4.88;1.27;;;;;;;19.02;63.23;100546.84;5014494;28;20041;-72
2022/07/27 06:20:56;;;;;;;7.55;1.98;;;;;;;19.18;62.21;100545.50;5018346;28;20518;-73
2022/07/27 06:23:22;;;;;;;4.43;1.42;;;;;;;19.14;61.81;100521.69;5024654;28;20073;-73
2022/07/27 06:25:49;;;;;;;6.38;1.60;;;;;;;19.45;61.21;100544.22;5021170;28;20104;-74
2022/07/27 06:28:18;;;;;;;12.80;1.50;;;;;;;19.58;59.76;100535.06;5017774;28;20042;-71
2022/07/27 06:30:45;;;;;;;5.03;1.42;;;;;;;19.78;59.25;100544.19;5012091;28;20053;-70
2022/07/27 06:33:13;;;;;;;7.25;1.50;;;;;;;19.95;58.91;100549.00;5015298;28;20123;-71
2022/07/27 06:35:40;;;;;;;3.95;1.67;;;;;;;20.01;59.18;100549.47;5014264;28;20045;-72
2022/07/27 06:38:07;;;;;;;4.40;1.27;;;;;;;20.03;59.38;100547.50;5007555;28;20053;-71
2022/07/27 06:40:34;;;;;;;4.60;1.60;;;;;;;20.06;58.50;100552.63;5007438;28;20084;-73
2022/07/27 06:43:01;;;;;;;6.47;1.50;;;;;;;20.08;58.42;100551.53;5010576;28;20081;-70
2022/07/27 06:45:27;;;;;;;5.50;1.42;;;;;;;19.99;58.35;100551.44;5010187;28;20088;-70
2022/07/27 06:47:54;;;;;;;8.50;1.80;;;;;;;19.88;58.92;100566.63;5013142;28;20493;-70
2022/07/27 06:50:21;;;;;;;8.68;1.40;;;;;;;19.97;58.70;100562.31;5013951;28;20111;-74
2022/07/27 06:52:48;;;;;;;5.03;1.50;;;;;;;20.02;57.88;100553.84;5011634;28;20056;-72
2022/07/27 06:55:16;;;;;;;5.53;1.70;;;;;;;20.12;58.57;100557.50;5019913;28;20049;-73
2022/07/27 06:57:45;;;;;;;5.60;1.42;;;;;;;20.11;57.09;100536.97;5018739;28;20586;-71
2022/07/27 07:00:12;;;;;;;4.35;1.27;;;;;;;20.35;57.70;100556.38;5010933;28;20108;-72
2022/07/27 07:02:53;;;;;;;7.68;1.65;;;;;;;20.61;56.36;100563.13;5019495;28;20073;-71
2022/07/27 07:05:21;;;;;;;5.22;1.35;;;;;;;20.69;55.33;100559.75;5016306;28;20481;-72
2022/07/27 07:07:48;;;;;;;7.65;1.38;;;;;;;20.66;55.72;100542.03;5021339;28;20111;-73
2022/07/27 07:10:16;;;;;;;3.78;1.60;;;;;;;21.06;55.79;100543.94;5020505;28;21753;-71
2022/07/27 07:12:43;;;;;;;3.65;1.50;;;;;;;21.50;52.61;100558.00;5023298;28;20433;-71
2022/07/27 07:15:11;;;;;;;6.68;1.10;;;;;;;21.48;52.19;100531.22;5020872;28;20092;-72
2022/07/27 07:17:39;;;;;;;5.13;1.35;;;;;;;21.80;52.26;100557.94;5019004;28;20065;-73
2022/07/27 07:20:07;;;;;;;4.28;1.27;;;;;;;22.21;51.48;100564.91;5017242;28;20050;-71
2022/07/27 07:22:33;;;;;;;4.93;1.48;;;;;;;22.24;49.59;100561.09;5020706;28;20072;-71
2022/07/27 07:25:01;;;;;;;4.20;1.00;;;;;;;22.44;50.11;100560.09;5015548;28;20081;-71
2022/07/27 07:27:28;;;;;;;4.03;1.17;;;;;;;22.79;48.81;100555.94;5016719;28;20050;-71
2022/07/27 07:29:55;;;;;;;4.78;1.30;;;;;;;22.92;47.87;100556.47;5029914;28;20069;-76
2022/07/27 07:32:23;;;;;;;3.03;1.23;;;;;;;22.99;46.99;100552.16;5024183;28;20536;-71
2022/07/27 07:34:57;;;;;;;9.77;1.30;;;;;;;23.01;46.64;100569.06;5025244;28;20497;-72
2022/07/27 07:37:23;;;;;;;3.60;1.10;;;;;;;22.69;46.91;100564.88;5023091;28;20077;-71
2022/07/27 07:39:59;;;;;;;6.78;1.50;;;;;;;22.69;47.57;100553.22;5017971;28;20049;-72
2022/07/27 07:42:53;;;;;;;4.60;0.98;;;;;;;22.82;47.69;100567.31;5023275;28;20046;-71
2022/07/27 07:45:22;;;;;;;5.22;1.10;;;;;;;22.85;46.19;100566.13;5021080;28;20077;-71
2022/07/27 07:47:49;;;;;;;6.25;1.50;;;;;;;22.87;45.49;100567.69;5017020;28;20049;-73
2022/07/27 07:50:17;;;;;;;3.80;1.00;;;;;;;23.02;46.48;100559.97;5018586;28;20140;-73
2022/07/27 07:52:43;;;;;;;6.55;1.38;;;;;;;23.10;45.92;100562.78;5027475;28;20042;-72
2022/07/27 07:55:10;;;;;;;4.07;1.42;;;;;;;23.16;45.36;100556.78;5033508;28;20065;-72
2022/07/27 07:57:37;;;;;;;6.25;1.08;;;;;;;23.35;43.91;100572.06;5033367;28;20053;-72
2022/07/27 08:00:06;;;;;;;2.28;1.00;;;;;;;23.49;43.73;100570.69;5033320;28;20057;-73
2022/07/27 08:02:42;;;;;;;5.47;1.30;;;;;;;23.14;44.70;100574.16;5030994;28;20053;-74
2022/07/27 08:05:08;;;;;;;6.32;1.38;;;;;;;22.85;45.18;100564.28;5028574;28;20052;-72
2022/07/27 08:07:35;;;;;;;4.53;1.15;;;;;;;22.82;45.50;100563.75;5034980;28;20042;-73
2022/07/27 08:10:03;;;;;;;4.43;1.20;;;;;;;23.15;45.16;100565.03;5031541;28;20042;-72
2022/07/27 08:12:30;;;;;;;7.60;1.35;;;;;;;23.31;44.61;100558.00;5035745;28;20103;-73
2022/07/27 08:14:56;;;;;;;5.10;1.00;;;;;;;23.46;43.18;100558.34;5029679;28;20053;-71
2022/07/27 08:17:23;;;;;;;4.53;0.95;;;;;;;23.74;42.82;100568.19;5035318;28;20045;-72
2022/07/27 08:19:49;;;;;;;10.43;1.40;;;;;;;23.66;41.98;100586.16;5031893;28;20045;-72
2022/07/27 08:22:16;;;;;;;5.68;1.20;;;;;;;23.72;42.54;100577.44;5033187;28;20056;-74
2022/07/27 08:24:42;;;;;;;8.85;1.60;;;;;;;24.02;41.61;100579.78;5035533;28;20083;-72
2022/07/27 08:27:09;;;;;;;7.28;1.45;;;;;;;23.90;41.68;100572.06;5030067;28;20555;-71
2022/07/27 08:29:36;;;;;;;5.63;1.30;;;;;;;24.07;42.17;100574.78;5039759;28;20050;-73
2022/07/27 08:32:03;;;;;;;6.25;1.05;;;;;;;24.39;41.35;100573.41;5029211;28;20583;-74
2022/07/27 08:34:31;;;;;;;7.38;1.10;;;;;;;24.28;40.23;100562.78;5036905;28;20116;-72
2022/07/27 08:36:58;;;;;;;5.97;1.33;;;;;;;24.28;40.14;100555.53;5030703;28;20053;-71
2022/07/27 08:39:24;;;;;;;6.90;1.67;;;;;;;24.27;40.32;100569.22;5024011;28;20057;-72
2022/07/27 08:42:11;;;;;;;7.07;1.30;;;;;;;24.09;40.80;100567.31;5031498;28;20073;-72
2022/07/27 08:44:39;;;;;;;4.70;1.10;;;;;;;23.37;41.97;100560.09;5030258;28;20088;-72
2022/07/27 08:47:10;;;;;;;4.55;1.10;;;;;;;23.31;42.68;100571.50;5039298;28;20080;-71
2022/07/27 08:49:40;;;;;;;;;;;;;;;23.44;42.19;100582.84;5028238;28;21114;-72
2022/07/27 08:52:11;;;;;;;6.38;1.48;;;;;;;23.25;41.63;100566.72;5017927;28;20027;-70
2022/07/27 08:54:39;;;;;;;4.85;1.00;;;;;;;23.09;42.17;100571.91;5026443;28;20122;-72
2022/07/27 08:57:07;;;;;;;4.05;1.13;;;;;;;23.15;41.69;100574.00;5021909;28;20052;-71
2022/07/27 08:59:34;;;;;;;4.80;1.08;;;;;;;23.03;41.60;100550.88;5025600;28;20145;-72
2022/07/27 09:02:12;;;;;;;5.88;1.60;;;;;;;23.23;41.34;100576.81;5023902;28;20046;-71
2022/07/27 09:04:40;;;;;;;7.25;1.30;;;;;;;23.33;41.53;100577.59;5029351;28;20053;-70
2022/07/27 09:07:07;;;;;;;5.15;1.10;;;;;;;23.63;40.73;100581.88;5021819;28;20045;-72
2022/07/27 09:09:45;;;;;;;4.82;1.17;;;;;;;23.81;40.29;100578.38;5027235;28;20057;-74
2022/07/27 09:12:12;;;;;;;3.80;0.98;;;;;;;23.89;39.52;100554.13;5017348;28;20547;-72
2022/07/27 09:14:40;;;;;;;4.28;1.05;;;;;;;23.74;39.36;100560.06;5028326;28;20045;-77
2022/07/27 09:17:25;;;;;;;5.00;1.10;;;;;;;23.34;40.24;100578.47;5022961;28;20480;-71
2022/07/27 09:20:18;;;;;;;4.95;1.02;;;;;;;23.05;41.54;100565.09;5027884;28;20084;-70
2022/07/27 09:22:51;;;;;;;7.07;1.30;;;;;;;22.93;42.25;100567.13;5017235;28;20145;-72
2022/07/27 09:25:23;;;;;;;3.92;1.33;;;;;;;22.98;41.95;100564.81;5031857;28;20045;-75
2022/07/27 09:28:10;;;;;;;5.35;1.15;;;;;;;22.97;41.52;100573.09;5029719;28;20128;-73
2022/07/27 09:30:42;;;;;;;6.28;1.08;;;;;;;22.97;41.96;100562.28;5024103;28;20085;-72
2022/07/27 09:33:14;;;;;;;4.65;1.05;;;;;;;22.86;42.18;100562.44;5016450;28;20124;-71
2022/07/27 09:35:40;;;;;;;2.35;1.02;;;;;;;22.50;42.14;100537.94;5030690;28;20104;-71
2022/07/27 09:38:22;;;;;;;3.30;1.10;;;;;;;22.62;42.43;100566.47;5022674;28;20073;-70
2022/07/27 09:41:03;;;;;;;4.97;1.20;;;;;;;22.37;41.77;100565.19;5016013;28;20449;-73
2022/07/27 09:43:30;;;;;;;3.67;1.10;;;;;;;22.44;42.34;100565.50;5024055;28;20053;-72
2022/07/27 09:46:34;;;;;;;5.25;1.70;;;;;;;22.70;42.49;100563.88;5026507;28;20095;-77
2022/07/27 09:49:02;;;;;;;4.68;1.10;;;;;;;22.92;40.93;100570.81;5026320;28;20148;-72
2022/07/27 09:51:30;;;;;;;3.55;1.23;;;;;;;22.86;40.48;100579.50;5026704;28;20054;-70
2022/07/27 09:54:17;;;;;;;4.25;1.20;;;;;;;22.74;40.36;100573.38;5026559;28;20091;-69
2022/07/27 09:56:43;;;;;;;3.50;1.00;;;;;;;22.60;40.56;100570.28;5019356;28;20178;-72
2022/07/27 09:59:17;;;;;;;2.63;0.77;;;;;;;22.32;41.56;100532.44;5025568;28;20543;-69
2022/07/27 10:01:44;;;;;;;3.42;1.23;;;;;;;22.42;41.28;100553.13;5020622;28;20083;-73
2022/07/27 10:04:21;;;;;;;6.50;1.30;;;;;;;22.51;41.12;100558.50;5015232;28;20054;-70
2022/07/27 10:06:48;;;;;;;3.90;1.15;;;;;;;22.63;41.27;100560.06;5021325;28;20401;-73
2022/07/27 10:09:37;;;;;;;3.95;1.30;;;;;;;22.64;40.48;100545.56;5013965;28;20096;-71
2022/07/27 10:12:07;;;;;;;5.00;1.20;;;;;;;22.59;40.33;100541.59;5014623;28;20068;-72
2022/07/27 10:14:35;;;;;;;3.25;0.93;;;;;;;22.82;40.95;100559.22;5018969;28;20522;-72
2022/07/27 10:17:02;;;;;;;5.05;1.10;;;;;;;23.09;40.17;100569.19;5016963;28;20794;-72
2022/07/27 10:19:45;;;;;;;2.70;1.00;;;;;;;23.34;39.70;100565.81;5012656;28;20544;-72
2022/07/27 10:22:13;;;;;;;3.88;1.02;;;;;;;23.45;38.38;100562.88;5015940;28;20115;-73
2022/07/27 10:24:40;;;;;;;4.82;1.52;;;;;;;23.63;38.63;100565.66;5020070;28;20053;-72
2022/07/27 10:27:27;;;;;;;1.85;0.98;;;;;;;23.40;38.38;100543.59;5017537;28;20549;-73
2022/07/27 10:29:55;;;;;;;2.92;0.88;;;;;;;23.43;39.00;100569.47;5019158;28;20049;-72
2022/07/27 10:32:27;;;;;;;6.72;0.90;;;;;;;23.49;39.51;100557.19;5017191;28;20091;-72
2022/07/27 10:34:54;;;;;;;4.57;1.05;;;;;;;23.57;39.48;100569.00;5015575;28;20422;-72
2022/07/27 10:37:29;;;;;;;4.85;1.20;;;;;;;23.42;38.50;100555.09;5021297;28;20041;-72
2022/07/27 10:43:05;;;;;;;3.78;0.95;;;;;;;23.40;37.89;100572.47;5017189;28;20068;-73
2022/07/27 10:45:40;;;;;;;5.68;1.35;;;;;;;23.31;38.05;100574.19;5016879;28;20065;-73
2022/07/27 10:48:41;;;;;;;3.15;1.20;;;;;;;23.54;37.56;100577.41;5014980;28;20053;-73
2022/07/27 10:51:15;;;;;;;2.78;1.10;;;;;;;23.83;36.58;100566.41;5015695;28;20045;-73
2022/07/27 10:53:44;;;;;;;6.00;1.15;;;;;;;24.05;36.84;100574.06;5019030;28;20041;-72
2022/07/27 10:56:50;;;;;;;3.13;0.82;;;;;;;23.95;36.97;100570.56;5013701;28;20055;-72
2022/07/27 10:59:39;;;;;;;2.88;0.80;;;;;;;23.71;37.87;100571.19;5019782;28;20433;-72
2022/07/27 11:02:40;;;;;;;2.63;1.00;;;;;;;23.79;37.96;100554.19;5017243;28;20080;-72
2022/07/27 11:05:10;;;;;;;4.72;1.65;;;;;;;23.96;37.18;100569.56;5015357;28;20670;-73
2022/07/27 11:07:57;;;;;;;3.15;0.90;;;;;;;23.89;37.00;100565.78;5019205;28;20077;-72
2022/07/27 11:10:44;;;;;;;11.35;1.25;;;;;;;23.89;37.20;100556.84;5016780;28;20137;-71
2022/07/27 11:13:12;;;;;;;3.13;0.80;;;;;;;23.99;37.24;100563.84;5019329;28;20131;-73
2022/07/27 11:15:38;;;;;;;4.88;1.20;;;;;;;24.03;36.46;100562.56;5021770;28;20058;-72
2022/07/27 11:18:05;;;;;;;2.88;0.98;;;;;;;23.92;36.47;100549.28;5017483;28;20522;-72
2022/07/27 11:20:32;;;;;;;3.45;0.88;;;;;;;24.03;36.16;100546.31;5018745;28;20054;-72
2022/07/27 11:23:01;;;;;;;2.22;0.77;;;;;;;24.25;35.89;100550.41;5016596;28;20442;-72
2022/07/27 11:26:00;;;;;;;4.97;0.90;;;;;;;24.55;35.54;100557.28;5015502;28;22442;-72
2022/07/27 11:28:32;;;;;;;5.40;1.00;;;;;;;24.58;35.72;100542.56;5016120;28;20069;-71
2022/07/27 11:30:59;;;;;;;4.22;1.17;;;;;;;24.76;35.26;100544.22;5018445;28;20050;-72
2022/07/27 11:33:29;;;;;;;3.60;0.80;;;;;;;24.61;35.06;100545.81;5017042;28;20081;-72
2022/07/27 11:36:00;;;;;;;2.97;1.23;;;;;;;24.43;36.24;100548.53;5011779;28;20100;-73
2022/07/27 11:38:27;;;;;;;4.03;1.00;;;;;;;24.20;36.35;100530.22;5015410;28;20045;-72
2022/07/27 11:40:54;;;;;;;2.45;1.00;;;;;;;24.09;36.11;100545.69;5018331;28;20164;-72